Time;durP1;ratioP1;P1;durP2;ratioP2;P2;SDS_P1;SDS_P2;PMS_P1;PMS_P2;Temp;Humidity;BMP_temperature;BMP_pressure;BME280_temperature;BME280_humidity;BME280_pressure;Samples;Min_cycle;Max_cycle;Signal;HPM_P1;HPM_P2
2021/06/24 00:01:09;;;;;;;21.20;19.10;;;;;;;23.21;75.96;99280.47;5034229;28;20533;-80
2021/06/24 00:03:36;;;;;;;21.00;18.80;;;;;;;23.11;76.07;99273.31;5017867;28;20561;-81
2021/06/24 00:06:04;;;;;;;21.02;19.02;;;;;;;23.09;76.15;99283.78;5035259;28;20206;-80
2021/06/24 00:08:31;;;;;;;21.75;19.50;;;;;;;23.01;76.37;99273.56;5033870;28;20288;-81
2021/06/24 00:10:59;;;;;;;21.92;19.63;;;;;;;22.95;76.39;99274.00;5017724;28;20257;-81
2021/06/24 00:13:27;;;;;;;21.70;18.80;;;;;;;22.89;76.64;99272.50;5034206;28;20222;-81
2021/06/24 00:15:55;;;;;;;21.90;19.60;;;;;;;22.79;76.48;99287.19;5018379;28;20246;-81
2021/06/24 00:18:22;;;;;;;21.50;19.33;;;;;;;22.71;76.60;99277.03;5037370;28;20646;-81
2021/06/24 00:20:49;;;;;;;20.92;19.02;;;;;;;22.73;76.66;99274.78;5037869;28;20512;-81
2021/06/24 00:23:17;;;;;;;21.70;19.40;;;;;;;22.63;76.89;99264.84;5037892;28;20280;-81
2021/06/24 00:25:44;;;;;;;21.55;19.20;;;;;;;22.63;76.85;99256.66;5037805;28;20226;-78
2021/06/24 00:28:15;;;;;;;21.92;19.63;;;;;;;22.65;76.94;99272.75;5020870;28;20238;-81
2021/06/24 00:30:47;;;;;;;21.63;19.42;;;;;;;22.61;77.70;99263.56;5021876;28;20238;-79
2021/06/24 00:33:15;;;;;;;22.30;19.95;;;;;;;22.50;77.98;99259.44;5021433;28;20238;-79
2021/06/24 00:35:42;;;;;;;21.77;19.67;;;;;;;22.52;78.19;99277.13;5004862;28;20241;-81
2021/06/24 00:38:09;;;;;;;23.13;20.60;;;;;;;22.51;78.15;99274.69;5020735;28;20226;-81
2021/06/24 00:40:36;;;;;;;23.05;20.67;;;;;;;22.35;78.60;99252.38;5021221;28;20229;-81
2021/06/24 00:43:07;;;;;;;21.88;19.85;;;;;;;22.45;78.50;99262.25;5037063;28;20226;-79
2021/06/24 00:45:35;;;;;;;23.02;20.67;;;;;;;22.29;78.78;99257.16;5021225;28;20233;-80
2021/06/24 00:48:03;;;;;;;22.35;20.15;;;;;;;22.34;78.67;99267.16;5020453;28;20731;-81
2021/06/24 00:50:29;;;;;;;21.90;19.50;;;;;;;22.28;79.14;99273.81;5037267;28;20641;-81
2021/06/24 00:52:59;;;;;;;22.50;20.25;;;;;;;22.24;79.14;99270.91;5037301;28;20230;-82
2021/06/24 00:55:44;;;;;;;23.02;20.63;;;;;;;22.18;79.29;99257.66;5020940;28;20557;-81
2021/06/24 00:58:27;;;;;;;23.63;21.25;;;;;;;22.24;79.26;99261.91;5020310;28;20315;-81
2021/06/24 01:00:57;;;;;;;24.23;21.85;;;;;;;22.15;79.56;99258.28;5021585;28;20715;-79
2021/06/24 01:03:26;;;;;;;24.55;22.15;;;;;;;22.16;79.43;99255.22;5021014;28;20226;-81
2021/06/24 01:05:53;;;;;;;24.33;21.98;;;;;;;22.16;79.47;99254.44;5020681;28;20246;-82
2021/06/24 01:08:27;;;;;;;26.55;23.50;;;;;;;22.16;79.14;99257.94;5036498;28;20237;-82
2021/06/24 01:10:58;;;;;;;23.40;21.00;;;;;;;22.16;79.64;99249.00;5022224;28;20280;-82
2021/06/24 01:13:25;;;;;;;24.65;22.08;;;;;;;22.13;79.73;99244.94;5036937;28;20295;-79
2021/06/24 01:15:52;;;;;;;24.88;22.27;;;;;;;22.12;79.71;99246.03;5036903;28;20257;-78
2021/06/24 01:18:19;;;;;;;24.45;21.77;;;;;;;22.15;79.66;99244.63;5036270;28;20525;-77
2021/06/24 01:20:47;;;;;;;23.20;21.00;;;;;;;22.12;79.72;99248.75;5036662;28;20230;-76
2021/06/24 01:23:16;;;;;;;24.35;20.30;;;;;;;22.13;79.81;99250.38;5020514;28;20250;-82
2021/06/24 01:25:43;;;;;;;23.35;21.05;;;;;;;22.10;80.00;99236.56;5020271;28;20242;-79
2021/06/24 01:28:11;;;;;;;23.20;20.88;;;;;;;22.10;79.76;99244.75;5019621;28;20229;-77
2021/06/24 01:30:41;;;;;;;25.27;22.67;;;;;;;22.06;80.18;99230.91;5020362;28;20307;-81
2021/06/24 01:33:10;;;;;;;24.23;21.52;;;;;;;22.12;80.16;99237.84;5020239;28;20236;-79
2021/06/24 01:35:37;;;;;;;23.70;21.50;;;;;;;21.99;80.10;99214.13;5020160;28;20234;-76
2021/06/24 01:38:06;;;;;;;23.20;20.90;;;;;;;22.08;80.21;99225.94;5036013;28;20233;-79
2021/06/24 01:40:35;;;;;;;24.02;21.52;;;;;;;22.10;80.32;99231.09;5004112;28;20283;-78
2021/06/24 01:43:03;;;;;;;24.95;22.35;;;;;;;22.08;80.37;99238.75;5019837;28;20229;-78
2021/06/24 01:45:31;;;;;;;23.98;21.63;;;;;;;22.06;80.37;99233.63;5019985;28;20230;-76
2021/06/24 01:47:58;;;;;;;24.65;22.08;;;;;;;22.03;80.47;99236.94;5003868;28;20316;-79
2021/06/24 01:50:26;;;;;;;23.98;21.80;;;;;;;21.95;80.42;99235.75;5035755;28;20246;-82
2021/06/24 01:52:54;;;;;;;24.95;22.52;;;;;;;21.89;80.40;99234.19;5019986;28;20228;-79
2021/06/24 01:55:31;;;;;;;26.00;23.15;;;;;;;21.86;80.39;99234.81;5019915;28;20229;-79
2021/06/24 01:58:01;;;;;;;24.15;21.73;;;;;;;21.87;80.65;99244.63;5021471;28;20557;-79
2021/06/24 02:00:56;;;;;;;24.77;22.17;;;;;;;21.81;80.45;99236.81;5052371;28;20237;-78
2021/06/24 02:03:24;;;;;;;24.27;21.80;;;;;;;21.86;80.57;99244.91;5055515;28;20226;-79
2021/06/24 02:05:54;;;;;;;23.55;21.23;;;;;;;21.86;80.56;99240.25;5055534;28;20228;-79
2021/06/24 02:08:23;;;;;;;24.75;22.20;;;;;;;21.83;80.74;99238.16;5022395;28;20245;-79
2021/06/24 02:11:13;;;;;;;24.73;22.35;;;;;;;21.90;80.77;99233.09;5041874;28;20358;-79
2021/06/24 02:13:43;;;;;;;24.23;21.52;;;;;;;21.85;81.03;99222.28;5039391;28;20228;-79
2021/06/24 02:16:10;;;;;;;23.83;21.63;;;;;;;21.84;81.12;99219.84;5055267;28;20652;-76
2021/06/24 02:18:37;;;;;;;23.75;21.45;;;;;;;21.89;81.17;99234.19;5038540;28;20222;-79
2021/06/24 02:21:10;;;;;;;24.25;21.85;;;;;;;21.89;81.20;99233.38;5055274;28;20232;-80
2021/06/24 02:23:45;;;;;;;24.48;22.10;;;;;;;21.90;81.38;99224.09;5039800;28;20286;-80
2021/06/24 02:26:26;;;;;;;24.02;21.63;;;;;;;21.90;81.22;99214.00;5055499;28;20233;-79
2021/06/24 02:29:14;;;;;;;24.23;21.73;;;;;;;21.94;81.08;99219.69;5041806;28;20316;-80
2021/06/24 02:31:43;;;;;;;25.60;22.90;;;;;;;21.89;81.09;99209.66;5022748;28;20231;-80
2021/06/24 02:34:24;;;;;;;26.30;23.50;;;;;;;21.95;80.97;99213.94;5025733;28;20236;-80
2021/06/24 02:36:58;;;;;;;24.45;22.10;;;;;;;21.94;81.12;99217.75;5039389;28;20240;-81
2021/06/24 02:39:45;;;;;;;24.75;22.02;;;;;;;22.00;81.05;99220.38;5054039;28;20225;-82
2021/06/24 02:42:13;;;;;;;22.83;20.52;;;;;;;21.99;80.68;99210.59;5038118;28;20643;-80
2021/06/24 02:44:42;;;;;;;23.55;21.33;;;;;;;22.01;80.59;99214.63;5038306;28;20653;-79
2021/06/24 02:47:09;;;;;;;23.90;21.42;;;;;;;21.99;80.53;99216.03;5054868;28;20308;-83
2021/06/24 02:49:37;;;;;;;23.65;21.33;;;;;;;21.96;80.55;99217.47;5022131;28;20239;-77
2021/06/24 02:52:06;;;;;;;22.23;20.13;;;;;;;21.84;80.37;99209.75;5022055;28;20245;-80
2021/06/24 02:54:34;;;;;;;22.35;20.30;;;;;;;21.88;80.44;99218.16;5038252;28;20224;-79
2021/06/24 02:57:02;;;;;;;22.75;20.45;;;;;;;21.90;80.60;99229.56;5054660;28;20333;-80
2021/06/24 02:59:48;;;;;;;23.83;21.50;;;;;;;21.89;80.46;99222.47;5040907;28;20299;-80
2021/06/24 03:02:16;;;;;;;24.23;21.90;;;;;;;21.84;80.36;99217.94;5037833;28;20233;-79
2021/06/24 03:04:44;;;;;;;22.73;20.53;;;;;;;21.81;80.52;99218.56;5054476;28;20667;-80
2021/06/24 03:07:12;;;;;;;23.13;21.08;;;;;;;21.82;80.33;99227.53;5038082;28;20320;-80
2021/06/24 03:10:08;;;;;;;23.95;21.52;;;;;;;21.81;80.30;99228.66;5041781;28;20230;-80
2021/06/24 03:12:41;;;;;;;23.83;21.60;;;;;;;21.79;80.31;99222.72;5022986;28;20226;-77
2021/06/24 03:15:10;;;;;;;21.63;19.52;;;;;;;21.83;80.28;99229.16;5054310;28;20652;-79
2021/06/24 03:17:38;;;;;;;23.85;21.38;;;;;;;21.87;79.85;99239.16;5055392;28;20662;-79
2021/06/24 03:20:07;;;;;;;24.85;22.27;;;;;;;21.91;79.38;99244.81;5053826;28;20543;-80
2021/06/24 03:22:35;;;;;;;24.95;22.45;;;;;;;21.81;79.66;99248.53;5037692;28;20228;-81
2021/06/24 03:25:07;;;;;;;26.70;23.60;;;;;;;21.59;80.65;99242.97;5037801;28;20230;-81
2021/06/24 03:27:35;;;;;;;26.70;23.83;;;;;;;21.66;80.57;99254.28;5037891;28;20224;-81
2021/06/24 03:30:34;;;;;;;25.47;22.87;;;;;;;21.73;80.46;99254.72;5031976;28;20639;-78
2021/06/24 03:33:02;;;;;;;26.23;23.50;;;;;;;21.77;80.41;99253.00;5037815;28;20232;-80
2021/06/24 03:35:29;;;;;;;27.40;24.70;;;;;;;21.84;80.17;99252.56;5021137;28;20256;-81
2021/06/24 03:37:57;;;;;;;25.93;23.37;;;;;;;21.97;79.20;99253.75;5021712;28;20252;-81
2021/06/24 03:40:25;;;;;;;25.83;23.43;;;;;;;21.93;79.34;99253.50;5037390;28;20283;-79
2021/06/24 03:42:56;;;;;;;26.70;24.20;;;;;;;21.95;79.84;99254.84;5053743;28;20345;-78
2021/06/24 03:45:24;;;;;;;28.07;25.17;;;;;;;22.02;79.57;99250.91;5054315;28;20319;-78
2021/06/24 03:47:51;;;;;;;29.60;26.50;;;;;;;22.03;79.70;99249.78;5037621;28;20225;-76
2021/06/24 03:50:17;;;;;;;27.23;24.63;;;;;;;22.11;79.96;99254.53;5038784;28;20268;-80
2021/06/24 03:52:46;;;;;;;29.67;26.60;;;;;;;22.09;79.58;99260.28;5041609;28;20249;-79
2021/06/24 03:55:19;;;;;;;28.77;25.73;;;;;;;22.17;79.60;99265.03;5058146;28;20257;-80
2021/06/24 03:57:59;;;;;;;28.17;25.27;;;;;;;22.21;79.15;99263.31;5044058;28;20534;-80
2021/06/24 04:00:26;;;;;;;29.73;26.47;;;;;;;22.33;79.32;99280.00;5058558;28;20250;-80
2021/06/24 04:03:05;;;;;;;29.98;26.85;;;;;;;22.51;78.88;99289.16;5041646;28;20228;-76
2021/06/24 04:05:50;;;;;;;30.08;26.00;;;;;;;22.75;77.74;99297.13;5042204;28;20237;-80
2021/06/24 04:08:17;;;;;;;29.10;26.02;;;;;;;23.07;76.39;99288.72;5056325;28;20237;-81
2021/06/24 04:11:04;;;;;;;30.60;24.33;;;;;;;23.39;75.84;99292.31;5044153;28;20229;-81
2021/06/24 04:13:37;;;;;;;27.75;24.15;;;;;;;23.59;74.53;99295.38;5058190;28;20228;-77
2021/06/24 04:16:20;;;;;;;31.00;27.50;;;;;;;23.81;73.08;99299.19;5029054;28;20221;-81
2021/06/24 04:18:47;;;;;;;30.10;26.42;;;;;;;23.78;73.28;99299.81;5057873;28;20240;-76
2021/06/24 04:21:14;;;;;;;33.10;27.08;;;;;;;23.82;72.73;99300.81;5041155;28;20243;-80
2021/06/24 04:23:41;;;;;;;31.20;26.52;;;;;;;24.06;71.65;99309.44;5041341;28;20579;-81
2021/06/24 04:26:11;;;;;;;32.40;27.63;;;;;;;24.16;71.03;99317.41;5041268;28;20312;-81
2021/06/24 04:28:38;;;;;;;33.53;27.67;;;;;;;24.32;70.68;99317.78;5024861;28;20229;-80
2021/06/24 04:31:08;;;;;;;31.75;28.02;;;;;;;24.80;69.72;99350.59;5025878;28;20226;-78
2021/06/24 04:33:36;;;;;;;30.73;27.60;;;;;;;25.27;66.55;99362.59;5057649;28;20229;-78
2021/06/24 04:36:26;;;;;;;29.08;26.10;;;;;;;25.40;66.44;99378.88;5057495;28;20298;-81
2021/06/24 04:39:03;;;;;;;29.20;26.17;;;;;;;25.92;64.62;99378.84;5027455;28;20229;-80
2021/06/24 04:41:31;;;;;;;31.52;27.65;;;;;;;25.73;64.67;99338.06;5040949;28;20233;-80
2021/06/24 04:44:00;;;;;;;32.22;27.35;;;;;;;25.52;65.53;99333.56;5041063;28;20241;-79
2021/06/24 04:46:30;;;;;;;33.03;27.35;;;;;;;25.24;66.37;99333.88;5057022;28;20230;-83
2021/06/24 04:48:58;;;;;;;35.33;27.77;;;;;;;25.03;66.68;99332.94;5057433;28;20316;-79
2021/06/24 04:51:44;;;;;;;34.03;28.75;;;;;;;25.01;66.97;99340.66;5057615;28;20244;-82
2021/06/24 04:54:15;;;;;;;32.03;26.15;;;;;;;24.93;67.69;99339.53;5056686;28;20229;-82
2021/06/24 04:56:43;;;;;;;30.95;27.10;;;;;;;25.02;67.15;99342.28;5057162;28;20237;-83
2021/06/24 04:59:12;;;;;;;32.55;27.48;;;;;;;25.06;66.93;99332.28;5024531;28;20237;-79
2021/06/24 05:02:17;;;;;;;35.70;25.95;;;;;;;25.36;66.00;99333.25;5055879;28;20235;-82
2021/06/24 05:05:13;;;;;;;37.25;26.00;;;;;;;25.66;64.90;99329.50;5057165;28;20237;-82
2021/06/24 05:07:40;;;;;;;29.05;25.85;;;;;;;25.58;64.78;99332.25;5040566;28;20234;-83
2021/06/24 05:10:08;;;;;;;27.75;24.85;;;;;;;25.64;64.77;99341.94;5056533;28;20589;-82
2021/06/24 05:12:34;;;;;;;29.45;25.15;;;;;;;25.63;64.34;99326.63;5040504;28;20506;-82
2021/06/24 05:15:02;;;;;;;28.00;25.00;;;;;;;25.81;63.62;99322.69;5058024;28;20229;-83
2021/06/24 05:17:29;;;;;;;30.38;24.80;;;;;;;25.84;63.61;99335.78;5056758;28;20234;-82
2021/06/24 05:19:58;;;;;;;34.47;24.33;;;;;;;26.02;63.09;99342.00;5023960;28;20251;-81
2021/06/24 05:22:25;;;;;;;27.42;23.67;;;;;;;25.96;63.27;99335.88;5056260;28;20628;-82
2021/06/24 05:24:52;;;;;;;26.63;23.83;;;;;;;26.23;62.52;99327.25;5023937;28;20306;-79
2021/06/24 05:27:19;;;;;;;27.88;23.80;;;;;;;26.48;62.28;99331.00;5023473;28;20259;-80
2021/06/24 05:29:45;;;;;;;26.52;23.73;;;;;;;26.40;62.06;99336.56;5039631;28;20294;-83
2021/06/24 05:32:12;;;;;;;26.50;22.60;;;;;;;26.52;61.46;99331.16;5056130;28;20297;-83
2021/06/24 05:34:39;;;;;;;25.65;22.55;;;;;;;26.48;61.19;99333.75;5056275;28;20247;-83
2021/06/24 05:37:05;;;;;;;24.42;21.80;;;;;;;26.52;61.18;99333.88;5040069;28;20233;-83
2021/06/24 05:39:32;;;;;;;23.85;21.42;;;;;;;26.65;60.80;99330.09;5057272;28;20245;-82
2021/06/24 05:41:59;;;;;;;24.77;22.00;;;;;;;26.80;60.74;99335.00;5056110;28;20237;-82
2021/06/24 05:44:26;;;;;;;30.02;22.10;;;;;;;26.76;60.73;99327.75;5055798;28;20282;-82
2021/06/24 05:46:54;;;;;;;26.83;23.02;;;;;;;26.80;59.94;99325.94;5056089;28;20232;-83
2021/06/24 05:49:22;;;;;;;26.92;23.70;;;;;;;26.76;60.13;99325.81;5039834;28;20626;-82
2021/06/24 05:51:49;;;;;;;26.25;23.15;;;;;;;27.02;60.10;99334.72;5039540;28;20285;-81
2021/06/24 05:54:17;;;;;;;26.13;23.15;;;;;;;27.01;59.46;99335.88;5039115;28;20629;-82
2021/06/24 05:56:44;;;;;;;30.88;23.20;;;;;;;26.98;59.51;99332.97;5039421;28;20225;-81
2021/06/24 05:59:11;;;;;;;29.67;24.30;;;;;;;27.05;58.96;99338.75;5055957;28;20258;-82
2021/06/24 06:01:42;;;;;;;32.80;24.52;;;;;;;27.03;58.93;99328.06;5055991;28;20227;-80
2021/06/24 06:04:10;;;;;;;30.00;26.50;;;;;;;26.61;60.42;99327.22;5023211;28;20581;-82
2021/06/24 06:06:38;;;;;;;31.45;26.95;;;;;;;26.62;60.01;99315.09;5055696;28;20223;-81
2021/06/24 06:09:05;;;;;;;29.70;26.42;;;;;;;26.92;59.89;99340.59;5041345;28;20283;-83
2021/06/24 06:11:33;;;;;;;30.25;25.48;;;;;;;27.17;59.13;99328.59;5045476;28;20260;-82
2021/06/24 06:14:00;;;;;;;30.80;25.48;;;;;;;26.70;60.38;99314.22;5001990;28;20239;-81
2021/06/24 06:16:27;;;;;;;28.85;25.17;;;;;;;26.97;59.53;99317.63;5039394;28;20815;-81
2021/06/24 06:18:56;;;;;;;28.10;24.55;;;;;;;27.36;58.52;99322.63;5056170;28;20640;-82
2021/06/24 06:21:23;;;;;;;29.10;23.67;;;;;;;27.47;57.74;99317.50;5055261;28;20315;-81
2021/06/24 06:23:50;;;;;;;29.75;23.73;;;;;;;27.39;57.36;99323.91;5054916;28;20229;-80
2021/06/24 06:26:17;;;;;;;26.38;23.58;;;;;;;27.34;58.01;99318.63;5021180;28;20229;-81
2021/06/24 06:28:43;;;;;;;29.02;24.10;;;;;;;27.47;57.58;99323.81;5021759;28;20346;-82
2021/06/24 06:31:11;;;;;;;24.85;22.27;;;;;;;27.78;57.18;99326.13;5055087;28;20225;-80
2021/06/24 06:33:38;;;;;;;26.73;22.60;;;;;;;27.86;57.00;99330.72;5055279;28;20628;-80
2021/06/24 06:36:04;;;;;;;24.23;21.27;;;;;;;27.94;56.10;99318.00;5054424;28;20637;-80
2021/06/24 06:38:31;;;;;;;27.45;21.35;;;;;;;28.35;55.54;99336.31;5038549;28;20221;-82
2021/06/24 06:40:58;;;;;;;25.67;21.38;;;;;;;28.10;55.87;99315.38;5055145;28;20233;-82
2021/06/24 06:43:26;;;;;;;22.90;18.95;;;;;;;27.99;54.71;99320.53;5055816;28;20515;-81
2021/06/24 06:45:53;;;;;;;20.85;18.10;;;;;;;28.28;54.60;99325.03;5038564;28;20578;-84
2021/06/24 06:48:20;;;;;;;27.30;18.42;;;;;;;28.25;54.96;99326.56;5037903;28;20244;-83
2021/06/24 06:50:47;;;;;;;19.40;17.40;;;;;;;28.16;54.22;99327.81;5055229;28;20279;-84
2021/06/24 06:53:13;;;;;;;18.55;16.70;;;;;;;28.28;54.21;99325.84;5055881;28;20309;-83
2021/06/24 06:55:40;;;;;;;18.85;15.85;;;;;;;28.07;53.73;99311.38;5055357;28;20267;-83
2021/06/24 06:58:07;;;;;;;17.02;13.50;;;;;;;27.94;53.75;99313.31;5054501;28;20232;-83
2021/06/24 07:00:34;;;;;;;15.80;12.35;;;;;;;28.16;53.24;99317.59;5054752;28;20298;-83
2021/06/24 07:03:02;;;;;;;16.35;12.27;;;;;;;28.06;52.79;99311.69;5038428;28;20217;-81
2021/06/24 07:05:29;;;;;;;14.23;11.10;;;;;;;28.44;52.33;99317.72;5038199;28;20664;-84
2021/06/24 07:07:56;;;;;;;15.35;11.23;;;;;;;27.91;53.42;99319.47;5054621;28;20256;-84
2021/06/24 07:10:24;;;;;;;15.25;10.43;;;;;;;28.40;52.20;99323.13;5021200;28;20232;-83
2021/06/24 07:12:50;;;;;;;11.23;10.13;;;;;;;28.55;51.00;99315.31;5021135;28;20542;-83
2021/06/24 07:15:18;;;;;;;14.73;9.60;;;;;;;28.82;50.27;99320.13;5054648;28;20233;-84
2021/06/24 07:17:45;;;;;;;11.82;8.43;;;;;;;28.78;50.35;99327.47;5037839;28;20230;-84
2021/06/24 07:20:16;;;;;;;10.68;8.07;;;;;;;28.56;50.47;99320.44;5038019;28;20228;-83
2021/06/24 07:22:42;;;;;;;13.15;7.63;;;;;;;28.36;50.19;99310.38;5021622;28;20653;-83
2021/06/24 07:25:13;;;;;;;9.55;7.65;;;;;;;28.57;49.95;99315.75;5037757;28;20233;-83
2021/06/24 07:27:40;;;;;;;10.52;7.80;;;;;;;28.14;51.27;99316.31;5037948;28;20302;-84
2021/06/24 07:30:08;;;;;;;11.32;7.78;;;;;;;28.26;51.00;99316.34;5037441;28;20664;-82
2021/06/24 07:32:35;;;;;;;8.40;7.57;;;;;;;28.49;50.47;99305.66;5052981;28;20241;-83
2021/06/24 07:35:02;;;;;;;11.23;7.85;;;;;;;28.53;50.61;99310.13;5038473;28;20291;-84
2021/06/24 07:37:32;;;;;;;9.55;7.60;;;;;;;28.87;49.62;99320.69;5054392;28;20275;-84
2021/06/24 07:39:59;;;;;;;8.38;7.57;;;;;;;28.92;49.71;99319.63;5054092;28;20295;-84
2021/06/24 07:42:25;;;;;;;9.32;7.22;;;;;;;28.97;49.04;99319.41;5054021;28;20232;-83
2021/06/24 07:44:52;;;;;;;8.40;6.88;;;;;;;29.02;48.87;99321.91;5037579;28;20233;-83
2021/06/24 07:47:20;;;;;;;11.23;6.75;;;;;;;28.65;49.41;99326.63;5054339;28;20236;-81
2021/06/24 07:49:47;;;;;;;9.00;6.68;;;;;;;28.66;50.27;99327.44;5037719;28;20271;-83
2021/06/24 07:52:14;;;;;;;8.60;6.47;;;;;;;28.70;49.56;99328.34;5053860;28;20279;-82
2021/06/24 07:54:41;;;;;;;6.85;6.15;;;;;;;28.59;49.95;99336.31;5054067;28;20299;-82
2021/06/24 07:57:08;;;;;;;7.63;6.85;;;;;;;28.83;49.47;99328.03;5037647;28;20229;-83
2021/06/24 07:59:35;;;;;;;7.38;6.68;;;;;;;28.27;51.01;99338.03;5054115;28;20248;-83
2021/06/24 08:02:03;;;;;;;8.20;7.15;;;;;;;28.82;50.35;99337.47;5037253;28;20291;-83
2021/06/24 08:04:30;;;;;;;10.50;7.07;;;;;;;28.56;50.36;99334.22;5037700;28;20226;-82
2021/06/24 08:06:57;;;;;;;9.30;7.07;;;;;;;28.77;49.22;99318.41;5037880;28;20532;-84
2021/06/24 08:09:23;;;;;;;9.48;7.35;;;;;;;28.90;48.83;99338.47;5055082;28;20237;-84
2021/06/24 08:11:50;;;;;;;8.30;7.53;;;;;;;28.76;50.09;99327.00;5037376;28;20535;-84
2021/06/24 08:14:17;;;;;;;11.48;7.95;;;;;;;28.33;50.00;99322.88;5053437;28;20233;-83
2021/06/24 08:16:44;;;;;;;8.77;7.88;;;;;;;28.41;51.18;99321.16;5037581;28;20245;-83
2021/06/24 08:19:11;;;;;;;8.23;7.38;;;;;;;28.80;49.95;99327.91;5053635;28;20249;-83
2021/06/24 08:21:37;;;;;;;11.63;7.97;;;;;;;29.08;50.49;99327.97;5020871;28;20305;-84
2021/06/24 08:24:05;;;;;;;12.50;9.50;;;;;;;28.34;51.06;99324.50;5036830;28;20280;-83
2021/06/24 08:26:32;;;;;;;11.60;9.27;;;;;;;28.11;52.08;99319.78;5053823;28;20583;-84
2021/06/24 08:28:59;;;;;;;11.15;9.63;;;;;;;28.56;51.25;99334.22;5021063;28;20226;-83
2021/06/24 08:31:26;;;;;;;11.10;10.02;;;;;;;28.99;50.50;99327.31;5036683;28;20253;-83
2021/06/24 08:33:53;;;;;;;10.85;9.48;;;;;;;29.04;50.69;99314.06;5053759;28;20232;-84
2021/06/24 08:36:20;;;;;;;11.85;9.25;;;;;;;29.47;49.04;99316.13;5053324;28;20736;-84
2021/06/24 08:38:47;;;;;;;10.23;9.23;;;;;;;29.58;48.37;99316.44;5040551;28;20528;-83
2021/06/24 08:41:15;;;;;;;9.80;8.35;;;;;;;29.94;47.46;99312.66;5045015;28;20230;-83
2021/06/24 08:43:42;;;;;;;16.95;9.70;;;;;;;29.97;47.73;99318.28;5054171;28;20504;-83
2021/06/24 08:46:09;;;;;;;16.45;10.77;;;;;;;29.53;49.13;99317.50;5037057;28;20261;-84
2021/06/24 08:48:38;;;;;;;10.52;8.40;;;;;;;29.26;48.67;99310.78;5037489;28;20279;-83
2021/06/24 08:51:06;;;;;;;10.80;7.68;;;;;;;29.77;48.55;99316.53;5053901;28;20238;-84
2021/06/24 08:53:34;;;;;;;10.70;9.27;;;;;;;29.59;47.63;99316.06;5020889;28;20253;-83
2021/06/24 08:56:00;;;;;;;10.23;9.15;;;;;;;29.78;48.36;99307.09;5037170;28;20234;-83
2021/06/24 08:58:27;;;;;;;14.32;11.50;;;;;;;29.99;48.75;99301.34;5036669;28;20249;-82
2021/06/24 09:00:54;;;;;;;18.25;14.52;;;;;;;29.98;48.80;99303.31;5038130;28;20226;-84
2021/06/24 09:03:24;;;;;;;19.02;15.38;;;;;;;30.12;49.43;99311.16;5021261;28;20309;-83
2021/06/24 09:06:07;;;;;;;18.58;16.33;;;;;;;29.87;49.61;99313.25;5005849;28;20240;-84
2021/06/24 09:08:37;;;;;;;18.00;14.48;;;;;;;29.86;48.71;99313.63;5036695;28;20276;-83
2021/06/24 09:11:15;;;;;;;15.32;13.63;;;;;;;29.93;49.37;99319.34;5038028;28;20230;-83
2021/06/24 09:13:59;;;;;;;16.10;14.38;;;;;;;29.42;49.32;99321.09;5036840;28;20226;-83
2021/06/24 09:16:33;;;;;;;16.35;13.82;;;;;;;29.75;48.92;99308.63;5020214;28;20241;-83
2021/06/24 09:19:14;;;;;;;16.17;14.52;;;;;;;29.75;49.56;99316.09;5036880;28;20237;-83
2021/06/24 09:21:43;;;;;;;17.20;15.50;;;;;;;29.83;49.14;99317.06;5036540;28;20308;-81
2021/06/24 09:24:28;;;;;;;18.75;15.57;;;;;;;29.81;49.23;99314.69;5020076;28;20234;-83
2021/06/24 09:26:57;;;;;;;19.45;16.70;;;;;;;29.48;49.59;99300.38;5036595;28;20230;-83
2021/06/24 09:29:24;;;;;;;16.55;14.85;;;;;;;30.03;48.60;99302.25;5004261;28;20261;-84
2021/06/24 09:31:56;;;;;;;16.13;14.25;;;;;;;29.75;49.70;99305.84;5036448;28;20264;-83
2021/06/24 09:34:25;;;;;;;18.98;13.05;;;;;;;29.95;48.65;99293.00;5036489;28;20318;-82
2021/06/24 09:37:00;;;;;;;15.90;12.10;;;;;;;29.64;48.46;99304.75;5020472;28;20226;-85
2021/06/24 09:39:37;;;;;;;13.57;11.20;;;;;;;30.09;47.62;99303.59;5036694;28;20233;-80
2021/06/24 09:42:11;;;;;;;12.38;10.82;;;;;;;30.31;47.12;99308.47;5033211;28;20249;-83
2021/06/24 09:44:41;;;;;;;13.23;10.57;;;;;;;30.54;46.71;99292.06;5033748;28;20240;-84
2021/06/24 09:47:18;;;;;;;14.88;11.60;;;;;;;30.75;45.68;99291.75;5018944;28;20280;-85
2021/06/24 09:50:03;;;;;;;13.60;10.52;;;;;;;30.54;46.35;99290.09;5035920;28;20222;-81
2021/06/24 09:52:31;;;;;;;12.88;10.30;;;;;;;30.65;45.94;99295.06;5053065;28;20229;-81
2021/06/24 09:55:05;;;;;;;11.40;10.20;;;;;;;31.22;44.66;99289.59;5046535;28;20295;-85
2021/06/24 09:57:32;;;;;;;11.80;10.63;;;;;;;31.05;44.73;99287.28;5037894;28;20274;-83
2021/06/24 10:00:19;;;;;;;10.27;9.27;;;;;;;31.08;44.69;99281.00;5037443;28;20257;-84
2021/06/24 10:03:11;;;;;;;11.77;9.85;;;;;;;31.41;43.96;99289.59;5054000;28;20229;-83
2021/06/24 10:05:40;;;;;;;13.27;9.98;;;;;;;31.48;43.59;99298.03;5038343;28;20222;-85
2021/06/24 10:08:10;;;;;;;12.15;9.73;;;;;;;31.76;42.38;99280.38;5043615;28;20217;-81
2021/06/24 10:10:38;;;;;;;11.63;9.52;;;;;;;32.22;41.72;99286.72;5054584;28;20746;-85
2021/06/24 10:13:05;;;;;;;12.75;10.25;;;;;;;32.26;41.63;99282.03;5036731;28;20226;-82
2021/06/24 10:15:33;;;;;;;15.32;12.15;;;;;;;31.82;43.76;99285.22;5051641;28;20230;-84
2021/06/24 10:18:01;;;;;;;17.70;11.98;;;;;;;32.25;42.18;99274.88;5002718;28;20230;-83
2021/06/24 10:20:29;;;;;;;15.68;11.45;;;;;;;32.33;42.41;99271.06;5035516;28;20646;-85
2021/06/24 10:23:08;;;;;;;16.23;13.80;;;;;;;30.91;45.49;99260.09;5035479;28;20280;-83
2021/06/24 10:25:37;;;;;;;14.80;13.13;;;;;;;31.12;45.08;99256.19;5030599;28;20225;-81
2021/06/24 10:28:05;;;;;;;14.50;12.88;;;;;;;31.22;44.13;99253.63;5054863;28;20225;-82
2021/06/24 10:30:41;;;;;;;16.17;13.63;;;;;;;31.60;43.74;99265.81;5054846;28;20686;-84
2021/06/24 10:33:12;;;;;;;16.25;12.63;;;;;;;31.82;43.90;99260.28;5038816;28;20596;-83
2021/06/24 10:35:41;;;;;;;16.08;13.35;;;;;;;31.37;44.91;99249.16;5054645;28;20241;-84
2021/06/24 10:38:11;;;;;;;18.52;13.82;;;;;;;31.79;43.02;99240.84;5035037;28;20295;-83
2021/06/24 10:40:39;;;;;;;17.85;13.68;;;;;;;32.22;42.75;99234.88;5034272;28;20716;-81
2021/06/24 10:43:08;;;;;;;15.98;13.07;;;;;;;32.68;42.21;99243.06;5037432;28;20283;-83
2021/06/24 10:45:36;;;;;;;20.08;12.93;;;;;;;32.55;40.76;99247.22;5054485;28;20320;-82
2021/06/24 10:48:24;;;;;;;15.30;13.77;;;;;;;32.88;40.91;99247.28;5053904;28;20228;-82
2021/06/24 10:51:08;;;;;;;16.55;13.95;;;;;;;33.12;41.09;99244.03;5055233;28;20661;-81
2021/06/24 10:53:36;;;;;;;20.45;14.10;;;;;;;33.50;39.93;99250.41;5037790;28;20229;-83
2021/06/24 10:56:21;;;;;;;17.23;13.63;;;;;;;33.87;38.70;99228.16;5053727;28;20276;-82
2021/06/24 10:58:48;;;;;;;15.90;13.15;;;;;;;33.86;39.25;99232.13;5055047;28;20296;-82
2021/06/24 11:01:18;;;;;;;15.05;13.55;;;;;;;33.87;38.69;99217.84;5037029;28;20312;-80
2021/06/24 11:03:46;;;;;;;16.25;13.25;;;;;;;34.28;38.45;99223.31;5037875;28;20229;-80
2021/06/24 11:06:14;;;;;;;15.40;13.80;;;;;;;34.23;37.79;99226.47;5054693;28;20230;-79
2021/06/24 11:08:42;;;;;;;17.90;13.90;;;;;;;34.37;38.22;99227.34;5053848;28;20229;-79
2021/06/24 11:11:16;;;;;;;19.05;15.20;;;;;;;33.74;38.29;99226.84;5053997;28;20319;-80
2021/06/24 11:13:46;;;;;;;18.60;14.65;;;;;;;33.29;39.51;99239.06;5053623;28;20279;-81
2021/06/24 11:16:16;;;;;;;18.90;15.10;;;;;;;32.63;40.60;99218.44;5053569;28;20256;-81
2021/06/24 11:18:47;;;;;;;16.73;13.88;;;;;;;32.92;40.13;99214.84;5053849;28;20234;-81
2021/06/24 11:21:29;;;;;;;17.40;13.93;;;;;;;33.51;39.39;99213.91;5054675;28;20232;-80
2021/06/24 11:24:13;;;;;;;17.83;13.65;;;;;;;34.04;37.88;99216.38;5053772;28;20570;-82
2021/06/24 11:26:41;;;;;;;15.88;13.73;;;;;;;34.55;36.88;99221.09;5037137;28;20298;-83
2021/06/24 11:29:14;;;;;;;17.90;13.23;;;;;;;34.90;36.06;99215.72;5053518;28;20612;-81
2021/06/24 11:34:51;;;;;;;17.58;12.77;;;;;;;35.00;36.54;99211.38;5053278;28;20236;-82
2021/06/24 11:37:16;;;;;;;17.83;13.85;;;;;;;35.23;34.88;99195.19;5053539;28;20221;-80